Time;durP1;ratioP1;P1;durP2;ratioP2;P2;SDS_P1;SDS_P2;PMS_P1;PMS_P2;Temp;Humidity;BMP_temperature;BMP_pressure;BME280_temperature;BME280_humidity;BME280_pressure;Samples;Min_cycle;Max_cycle;Signal;HPM_P1;HPM_P2
2022/01/22 00:00:53;;;;;;;11.75;2.72;;;;;;;;;;4993041;28;95316;-67
2022/01/22 00:03:19;;;;;;;14.43;2.70;;;;;;;;;;4992205;28;94885;-68
2022/01/22 00:05:46;;;;;;;13.00;2.72;;;;;;;;;;4995325;28;93307;-67
2022/01/22 00:08:12;;;;;;;15.75;2.95;;;;;;;;;;4991739;28;93472;-68
2022/01/22 00:10:42;;;;;;;8.38;2.42;;;;;;;;;;4996546;28;92560;-68
2022/01/22 00:14:23;;;;;;;10.10;2.50;;;;;;;;;;4991068;28;93400;-68
2022/01/22 00:15:55;;;;;;;22.88;4.03;;;;;;;;;;4995793;28;94297;-68
2022/01/22 00:18:21;;;;;;;20.55;2.97;;;;;;;;;;4992972;28;91770;-68
2022/01/22 00:20:48;;;;;;;13.07;3.67;;;;;;;;;;4992492;28;92622;-68
2022/01/22 00:23:20;;;;;;;17.85;3.53;;;;;;;;;;4998709;28;93201;-68
2022/01/22 00:25:46;;;;;;;9.40;2.80;;;;;;;;;;4994574;28;94825;-68
2022/01/22 00:28:12;;;;;;;14.07;2.88;;;;;;;;;;4992195;28;94382;-68
2022/01/22 00:30:39;;;;;;;14.05;3.50;;;;;;;;;;4992740;28;92460;-68
2022/01/22 00:33:05;;;;;;;15.23;3.15;;;;;;;;;;4992167;28;93087;-68
2022/01/22 00:35:31;;;;;;;17.75;3.28;;;;;;;;;;4976015;28;94209;-68
2022/01/22 00:37:59;;;;;;;8.15;2.72;;;;;;;;;;4994247;28;92888;-68
2022/01/22 00:40:31;;;;;;;12.20;2.75;;;;;;;;;;4967258;28;95003;-68
2022/01/22 00:42:58;;;;;;;16.63;2.85;;;;;;;;;;5000649;28;92939;-68
2022/01/22 00:45:24;;;;;;;15.27;2.50;;;;;;;;;;4992695;28;93012;-68
2022/01/22 00:47:51;;;;;;;11.32;2.72;;;;;;;;;;4996718;28;93678;-68
2022/01/22 00:50:19;;;;;;;12.30;2.75;;;;;;;;;;4989643;28;97689;-68
2022/01/22 00:52:46;;;;;;;22.35;3.80;;;;;;;;;;4991460;28;94277;-68
2022/01/22 00:55:13;;;;;;;14.55;3.20;;;;;;;;;;4985549;28;94640;-68
2022/01/22 00:57:40;;;;;;;11.38;3.08;;;;;;;;;;4990235;28;93130;-68
2022/01/22 01:00:08;;;;;;;18.42;3.17;;;;;;;;;;4992302;28;92515;-68
2022/01/22 01:02:36;;;;;;;21.80;3.47;;;;;;;;;;4986303;28;94167;-68
2022/01/22 01:05:06;;;;;;;20.10;3.13;;;;;;;;;;4991511;28;93069;-68
2022/01/22 01:07:33;;;;;;;26.88;3.42;;;;;;;;;;4988137;28;92570;-68
2022/01/22 01:09:59;;;;;;;17.55;3.15;;;;;;;;;;4990432;28;92568;-68
2022/01/22 01:12:26;;;;;;;17.23;3.58;;;;;;;;;;5000091;28;95471;-68
2022/01/22 01:15:20;;;;;;;18.38;3.75;;;;;;;;;;4971452;28;98602;-68
2022/01/22 01:34:22;;;;;;;14.32;3.55;;;;;;;;;;4976193;28;94456;-68
2022/01/22 01:36:49;;;;;;;12.27;3.45;;;;;;;;;;4981027;28;94958;-68
2022/01/22 01:39:22;;;;;;;18.85;3.53;;;;;;;;;;4974099;28;92842;-68
2022/01/22 01:42:00;;;;;;;20.85;3.00;;;;;;;;;;4975261;28;95417;-68
2022/01/22 01:44:28;;;;;;;17.70;3.28;;;;;;;;;;4974863;28;94891;-67
2022/01/22 01:47:12;;;;;;;14.82;3.20;;;;;;;;;;5007938;28;92682;-67
2022/01/22 01:49:39;;;;;;;22.17;3.25;;;;;;;;;;4975797;28;93260;-67
2022/01/22 01:52:23;;;;;;;19.75;4.65;;;;;;;;;;4978398;28;92522;-67
2022/01/22 01:55:03;;;;;;;12.48;3.90;;;;;;;;;;4972527;28;94259;-67
2022/01/22 01:57:40;;;;;;;13.13;4.30;;;;;;;;;;4973621;28;94248;-67
2022/01/22 02:00:18;;;;;;;20.60;3.75;;;;;;;;;;4974886;28;93279;-67
2022/01/22 02:02:49;;;;;;;28.08;3.75;;;;;;;;;;4988231;28;94672;-67
2022/01/22 02:05:21;;;;;;;24.33;5.68;;;;;;;;;;4990573;28;93320;-68
2022/01/22 02:07:51;;;;;;;22.33;3.95;;;;;;;;;;4971007;28;96539;-68
2022/01/22 02:10:23;;;;;;;25.48;4.30;;;;;;;;;;5001373;28;95759;-68
2022/01/22 02:23:48;;;;;;;19.83;5.22;;;;;;;;;;4973119;28;92954;-67
2022/01/22 02:26:15;;;;;;;20.50;4.75;;;;;;;;;;4986643;28;92828;-67
2022/01/22 02:28:50;;;;;;;20.98;4.43;;;;;;;;;;4971932;28;93365;-68
2022/01/22 02:34:38;;;;;;;20.92;5.75;;;;;;;;;;4904269;28;97188;-68
2022/01/22 02:37:12;;;;;;;20.00;5.28;;;;;;;;;;4964494;28;92693;-68
2022/01/22 02:39:47;;;;;;;20.55;5.00;;;;;;;;;;4994422;28;93017;-68
2022/01/22 02:42:14;;;;;;;15.98;4.50;;;;;;;;;;4972622;28;93474;-68
2022/01/22 02:44:45;;;;;;;18.55;4.90;;;;;;;;;;4990168;28;92902;-68
2022/01/22 02:47:14;;;;;;;21.42;5.63;;;;;;;;;;4974522;28;93850;-68
2022/01/22 02:49:41;;;;;;;29.90;6.80;;;;;;;;;;4967060;28;93869;-68
2022/01/22 02:52:10;;;;;;;26.52;5.63;;;;;;;;;;4975740;28;95402;-68
2022/01/22 02:54:40;;;;;;;20.58;4.75;;;;;;;;;;4972034;28;93366;-68
2022/01/22 02:57:08;;;;;;;27.67;4.97;;;;;;;;;;4987795;28;95061;-68
2022/01/22 02:59:36;;;;;;;16.88;4.55;;;;;;;;;;4988201;28;96150;-68
2022/01/22 03:02:04;;;;;;;19.35;4.97;;;;;;;;;;4976752;28;95959;-68
2022/01/22 03:04:30;;;;;;;15.27;4.88;;;;;;;;;;4973491;28;95906;-68
2022/01/22 03:06:57;;;;;;;21.58;5.03;;;;;;;;;;4974276;28;96459;-68
2022/01/22 03:09:28;;;;;;;23.02;4.93;;;;;;;;;;4989617;28;95039;-68
2022/01/22 03:22:26;;;;;;;19.15;4.65;;;;;;;;;;4991076;28;94390;-68
2022/01/22 03:27:38;;;;;;;12.73;4.05;;;;;;;;;;4994306;28;93027;-67
2022/01/22 03:30:05;;;;;;;19.55;3.80;;;;;;;;;;4972485;28;94236;-67
2022/01/22 03:32:39;;;;;;;17.88;3.97;;;;;;;;;;4970283;28;95355;-67
2022/01/22 03:35:24;;;;;;;11.18;4.03;;;;;;;;;;4989136;28;94008;-67
2022/01/22 03:37:56;;;;;;;19.58;4.75;;;;;;;;;;4975499;28;94527;-67
2022/01/22 03:40:25;;;;;;;17.95;4.03;;;;;;;;;;4971221;28;95276;-68
2022/01/22 03:42:52;;;;;;;20.02;3.85;;;;;;;;;;4974063;28;94255;-67
2022/01/22 03:45:20;;;;;;;16.75;3.78;;;;;;;;;;4975213;28;92681;-67
2022/01/22 03:47:47;;;;;;;9.88;4.00;;;;;;;;;;4973526;28;94330;-67
2022/01/22 03:50:14;;;;;;;13.40;3.67;;;;;;;;;;4985193;28;96268;-68
2022/01/22 03:52:41;;;;;;;18.20;3.38;;;;;;;;;;4985810;28;96518;-67
2022/01/22 03:55:13;;;;;;;7.05;3.13;;;;;;;;;;4970824;28;93262;-67
2022/01/22 03:58:17;;;;;;;18.83;4.07;;;;;;;;;;4986108;28;93864;-67
2022/01/22 04:00:52;;;;;;;15.52;3.13;;;;;;;;;;4972371;28;94596;-67
2022/01/22 04:03:32;;;;;;;19.73;3.67;;;;;;;;;;4983462;28;94202;-67
2022/01/22 04:06:21;;;;;;;21.40;4.50;;;;;;;;;;4990131;28;92602;-67
2022/01/22 04:08:45;;;;;;;14.60;3.72;;;;;;;;;;4972673;28;95650;-67
2022/01/22 04:11:15;;;;;;;19.77;5.07;;;;;;;;;;4973528;28;94453;-67
2022/01/22 04:13:43;;;;;;;17.05;3.47;;;;;;;;;;4972051;28;95189;-68
2022/01/22 04:16:12;;;;;;;16.92;3.95;;;;;;;;;;4996390;28;96107;-68
2022/01/22 04:26:57;;;;;;;19.25;5.10;;;;;;;;;;4984430;28;94498;-67
2022/01/22 04:29:25;;;;;;;15.68;3.90;;;;;;;;;;4964826;28;94554;-68
2022/01/22 04:31:52;;;;;;;17.60;4.18;;;;;;;;;;4990825;28;94382;-68
2022/01/22 04:34:18;;;;;;;18.00;4.68;;;;;;;;;;4987442;28;92721;-68
2022/01/22 04:36:45;;;;;;;17.58;3.95;;;;;;;;;;4970842;28;93752;-67
2022/01/22 04:39:12;;;;;;;12.90;3.60;;;;;;;;;;4968661;28;92628;-68
2022/01/22 04:41:38;;;;;;;16.77;4.40;;;;;;;;;;4970627;28;95146;-68
2022/01/22 04:44:06;;;;;;;11.85;4.07;;;;;;;;;;4986614;28;94667;-68
2022/01/22 04:57:18;;;;;;;22.38;4.70;;;;;;;;;;4987247;28;93079;-68
2022/01/22 04:59:45;;;;;;;18.25;5.15;;;;;;;;;;4967513;28;93118;-68
2022/01/22 05:02:11;;;;;;;19.15;5.05;;;;;;;;;;4973854;28;94335;-68
2022/01/22 05:05:01;;;;;;;29.17;5.00;;;;;;;;;;4969469;28;95040;-68
2022/01/22 05:07:36;;;;;;;16.50;4.15;;;;;;;;;;4984668;28;95425;-68
2022/01/22 05:10:12;;;;;;;18.48;5.15;;;;;;;;;;4974404;28;96516;-69
2022/01/22 05:12:40;;;;;;;20.25;4.70;;;;;;;;;;4972537;28;95883;-69
2022/01/22 05:15:06;;;;;;;16.30;5.05;;;;;;;;;;4966460;28;94167;-68
2022/01/22 05:17:36;;;;;;;22.98;4.82;;;;;;;;;;4973098;28;94408;-67
2022/01/22 05:20:25;;;;;;;25.25;5.28;;;;;;;;;;4971520;28;93633;-67
2022/01/22 05:25:52;;;;;;;22.65;5.65;;;;;;;;;;4978296;28;94585;-67
2022/01/22 05:39:21;;;;;;;18.10;5.68;;;;;;;;;;4970800;28;93340;-67
2022/01/22 05:41:48;;;;;;;18.20;5.95;;;;;;;;;;4984347;28;92889;-67
2022/01/22 05:44:15;;;;;;;19.95;5.22;;;;;;;;;;4986630;28;93981;-67
2022/01/22 05:46:41;;;;;;;20.35;6.55;;;;;;;;;;4969204;28;95764;-67
2022/01/22 05:49:12;;;;;;;19.73;5.57;;;;;;;;;;4986762;28;93617;-67
2022/01/22 05:51:41;;;;;;;24.02;5.47;;;;;;;;;;4970459;28;93914;-67
2022/01/22 05:59:39;;;;;;;16.38;4.35;;;;;;;;;;4968483;28;96132;-68
2022/01/22 06:02:09;;;;;;;14.98;4.70;;;;;;;;;;4973788;28;93348;-67
2022/01/22 06:04:37;;;;;;;17.95;4.40;;;;;;;;;;4976952;28;94668;-67
2022/01/22 06:07:06;;;;;;;25.40;4.80;;;;;;;;;;4976875;28;94577;-67
2022/01/22 06:09:37;;;;;;;18.85;4.45;;;;;;;;;;4977006;28;92546;-67
2022/01/22 06:12:16;;;;;;;15.05;4.43;;;;;;;;;;4979628;28;95300;-67
2022/01/22 06:14:48;;;;;;;14.98;3.33;;;;;;;;;;4971492;28;95725;-68
2022/01/22 06:17:14;;;;;;;9.50;3.53;;;;;;;;;;4977345;28;91842;-67
2022/01/22 06:19:44;;;;;;;14.07;4.25;;;;;;;;;;4976540;28;94849;-67
2022/01/22 06:22:10;;;;;;;27.00;3.60;;;;;;;;;;5007337;28;94960;-67
2022/01/22 06:24:37;;;;;;;18.42;3.80;;;;;;;;;;4995399;28;94900;-67
2022/01/22 06:27:07;;;;;;;20.65;4.07;;;;;;;;;;4975820;28;95340;-67
2022/01/22 06:29:35;;;;;;;13.77;3.47;;;;;;;;;;4976515;28;93091;-67
2022/01/22 06:32:02;;;;;;;10.32;2.95;;;;;;;;;;4976164;28;95278;-68
2022/01/22 06:34:33;;;;;;;14.70;3.45;;;;;;;;;;4976068;28;95387;-67
2022/01/22 06:37:00;;;;;;;19.52;3.40;;;;;;;;;;4975540;28;93016;-67
2022/01/22 06:39:29;;;;;;;9.98;2.38;;;;;;;;;;4976420;28;94162;-67
2022/01/22 06:42:15;;;;;;;15.80;3.22;;;;;;;;;;4993628;28;92899;-67
2022/01/22 06:45:10;;;;;;;19.05;2.75;;;;;;;;;;4975747;28;92778;-67
2022/01/22 06:47:37;;;;;;;14.05;2.58;;;;;;;;;;4997634;28;92830;-67
2022/01/22 06:50:11;;;;;;;13.70;2.25;;;;;;;;;;4973734;28;94952;-67
2022/01/22 06:52:41;;;;;;;6.95;1.88;;;;;;;;;;4994426;28;95126;-67
2022/01/22 06:55:18;;;;;;;12.25;2.20;;;;;;;;;;4975647;28;93317;-67
2022/01/22 06:57:44;;;;;;;10.75;2.33;;;;;;;;;;5008937;28;92529;-67
2022/01/22 07:00:18;;;;;;;17.27;2.65;;;;;;;;;;4975809;28;94128;-67
2022/01/22 07:02:56;;;;;;;21.92;2.55;;;;;;;;;;4975297;28;93456;-67
2022/01/22 07:05:24;;;;;;;11.30;2.33;;;;;;;;;;4975645;28;92917;-67
2022/01/22 07:08:09;;;;;;;16.92;2.88;;;;;;;;;;4995373;28;92445;-67
2022/01/22 07:10:41;;;;;;;6.72;1.70;;;;;;;;;;5001884;28;92498;-67
2022/01/22 07:13:07;;;;;;;13.07;2.90;;;;;;;;;;4975759;28;95772;-67
2022/01/22 07:15:35;;;;;;;11.68;2.53;;;;;;;;;;4972626;28;97902;-67
2022/01/22 07:18:13;;;;;;;10.85;2.67;;;;;;;;;;4974927;28;92516;-67
2022/01/22 07:20:41;;;;;;;12.13;2.60;;;;;;;;;;5001529;28;93539;-67
2022/01/22 07:23:16;;;;;;;18.10;3.25;;;;;;;;;;4975093;28;94916;-67
2022/01/22 07:25:51;;;;;;;25.25;3.10;;;;;;;;;;4985061;28;92531;-67
2022/01/22 07:28:28;;;;;;;8.50;1.83;;;;;;;;;;4975585;28;95186;-66
2022/01/22 07:30:55;;;;;;;11.93;2.63;;;;;;;;;;4978128;28;95922;-68
2022/01/22 07:33:22;;;;;;;10.32;2.72;;;;;;;;;;4975602;28;93251;-67
2022/01/22 07:35:51;;;;;;;14.27;2.30;;;;;;;;;;4975361;28;95685;-67
2022/01/22 07:38:18;;;;;;;6.43;2.45;;;;;;;;;;4974425;28;92507;-67
2022/01/22 07:40:44;;;;;;;13.90;2.90;;;;;;;;;;4973772;28;95259;-67
2022/01/22 07:43:19;;;;;;;14.23;2.40;;;;;;;;;;4993095;28;93249;-67
2022/01/22 07:46:04;;;;;;;14.73;2.42;;;;;;;;;;4985948;28;92645;-67
2022/01/22 07:48:37;;;;;;;17.92;2.95;;;;;;;;;;4975386;28;95782;-67
2022/01/22 07:51:27;;;;;;;9.05;2.30;;;;;;;;;;4974721;28;95702;-67
2022/01/22 07:53:54;;;;;;;22.48;4.15;;;;;;;;;;4977871;28;92593;-67
2022/01/22 07:56:24;;;;;;;14.63;3.35;;;;;;;;;;4974623;28;94989;-67
2022/01/22 07:58:51;;;;;;;9.68;2.40;;;;;;;;;;4985887;28;91813;-67
2022/01/22 08:01:19;;;;;;;11.30;3.30;;;;;;;;;;4973406;28;94637;-67
2022/01/22 08:04:04;;;;;;;18.10;2.58;;;;;;;;;;4984036;28;92707;-67
2022/01/22 08:06:53;;;;;;;7.90;2.03;;;;;;;;;;4989667;28;95528;-67
2022/01/22 08:09:50;;;;;;;13.02;2.50;;;;;;;;;;4991496;28;95106;-67
2022/01/22 08:12:19;;;;;;;10.00;3.22;;;;;;;;;;4992599;28;92548;-67
2022/01/22 08:14:47;;;;;;;12.90;1.95;;;;;;;;;;4974027;28;92935;-67
2022/01/22 08:17:14;;;;;;;8.85;2.22;;;;;;;;;;4977467;28;93825;-67
2022/01/22 08:19:40;;;;;;;10.10;2.42;;;;;;;;;;4976103;28;93517;-67
2022/01/22 08:22:29;;;;;;;10.70;2.25;;;;;;;;;;4991927;28;93767;-67
2022/01/22 08:25:14;;;;;;;10.70;2.40;;;;;;;;;;4984955;28;91888;-67
2022/01/22 08:30:32;;;;;;;7.30;2.92;;;;;;;;;;4945818;28;95493;-67
2022/01/22 08:35:54;;;;;;;11.48;2.40;;;;;;;;;;4973760;28;94394;-67
2022/01/22 08:38:25;;;;;;;10.68;2.40;;;;;;;;;;4974757;28;92545;-67
2022/01/22 08:40:52;;;;;;;9.90;2.28;;;;;;;;;;4976599;28;95377;-67
2022/01/22 08:43:19;;;;;;;15.85;3.00;;;;;;;;;;4973533;28;92507;-67
2022/01/22 08:45:49;;;;;;;6.22;2.00;;;;;;;;;;4974139;28;92530;-68
2022/01/22 08:48:17;;;;;;;8.10;2.15;;;;;;;;;;4973747;28;92561;-67
2022/01/22 08:50:46;;;;;;;6.75;2.00;;;;;;;;;;4974919;28;95262;-68
2022/01/22 08:53:32;;;;;;;8.23;2.53;;;;;;;;;;4969413;28;93275;-67
2022/01/22 08:56:00;;;;;;;6.63;2.17;;;;;;;;;;4973267;28;92788;-67
2022/01/22 08:58:27;;;;;;;7.15;2.13;;;;;;;;;;4972748;28;95881;-67
2022/01/22 09:00:57;;;;;;;7.97;1.60;;;;;;;;;;4973704;28;95704;-67
2022/01/22 09:03:29;;;;;;;9.50;2.15;;;;;;;;;;4976531;28;92534;-69
2022/01/22 09:06:17;;;;;;;6.82;2.08;;;;;;;;;;4973782;28;95856;-67
2022/01/22 09:08:59;;;;;;;8.25;1.70;;;;;;;;;;4972871;28;92561;-67
2022/01/22 09:11:43;;;;;;;10.23;2.17;;;;;;;;;;4998019;28;93774;-67
2022/01/22 09:14:29;;;;;;;9.02;1.95;;;;;;;;;;4984449;28;93165;-67
2022/01/22 09:16:58;;;;;;;6.80;2.28;;;;;;;;;;4974125;28;92232;-67
2022/01/22 09:19:32;;;;;;;8.65;2.95;;;;;;;;;;5006270;28;92703;-67
2022/01/22 09:22:00;;;;;;;11.10;2.40;;;;;;;;;;4982727;28;93521;-67
2022/01/22 09:24:26;;;;;;;9.23;3.10;;;;;;;;;;4986607;28;94966;-67
2022/01/22 09:26:53;;;;;;;13.30;3.70;;;;;;;;;;4971647;28;96291;-67
2022/01/22 09:29:20;;;;;;;9.30;2.58;;;;;;;;;;4974123;28;92542;-66
2022/01/22 09:31:47;;;;;;;8.95;2.28;;;;;;;;;;4975069;28;95430;-67
2022/01/22 09:34:32;;;;;;;7.60;2.28;;;;;;;;;;4974968;28;94357;-67
2022/01/22 09:37:24;;;;;;;14.00;2.97;;;;;;;;;;4957790;28;94496;-67
2022/01/22 09:40:10;;;;;;;7.70;2.60;;;;;;;;;;4992433;28;92819;-67
2022/01/22 09:42:59;;;;;;;10.50;2.75;;;;;;;;;;4985266;28;91751;-67
2022/01/22 09:45:34;;;;;;;14.00;4.30;;;;;;;;;;4971353;28;94006;-68
2022/01/22 09:48:21;;;;;;;11.80;2.97;;;;;;;;;;4997649;28;92623;-68
2022/01/22 09:51:08;;;;;;;10.13;2.90;;;;;;;;;;4982209;28;95339;-67
2022/01/22 09:53:53;;;;;;;6.78;2.63;;;;;;;;;;4995056;28;94884;-67
2022/01/22 09:56:34;;;;;;;18.10;2.70;;;;;;;;;;4983756;28;95645;-67
2022/01/22 09:59:13;;;;;;;13.80;2.72;;;;;;;;;;4975812;28;92512;-67
2022/01/22 10:02:11;;;;;;;9.82;2.78;;;;;;;;;;4979412;28;95397;-67
2022/01/22 10:04:41;;;;;;;9.53;2.47;;;;;;;;;;4982562;28;95479;-67
2022/01/22 10:07:27;;;;;;;7.45;2.63;;;;;;;;;;4984615;28;94280;-67
2022/01/22 10:10:13;;;;;;;10.35;2.10;;;;;;;;;;4965783;28;92642;-67
2022/01/22 10:13:12;;;;;;;8.55;2.33;;;;;;;;;;4998538;28;92909;-66
2022/01/22 10:15:41;;;;;;;4.43;2.33;;;;;;;;;;5004077;28;93784;-67
2022/01/22 10:18:19;;;;;;;8.48;2.75;;;;;;;;;;4977856;28;98413;-67
2022/01/22 10:20:46;;;;;;;9.05;2.50;;;;;;;;;;4992694;28;92832;-67
2022/01/22 10:23:21;;;;;;;5.80;2.22;;;;;;;;;;4991254;28;93041;-67
2022/01/22 10:25:54;;;;;;;11.82;3.13;;;;;;;;;;4995930;28;94067;-67
2022/01/22 10:28:22;;;;;;;14.10;3.25;;;;;;;;;;4993661;28;92520;-67
2022/01/22 10:30:52;;;;;;;14.95;3.30;;;;;;;;;;4992439;28;93757;-67
2022/01/22 10:33:36;;;;;;;14.25;3.83;;;;;;;;;;4976208;28;94368;-67
2022/01/22 10:36:22;;;;;;;9.90;2.78;;;;;;;;;;4996595;28;92147;-68
2022/01/22 10:39:09;;;;;;;5.72;2.38;;;;;;;;;;4991585;28;93408;-68
2022/01/22 10:41:36;;;;;;;;;;;;;;;;;;4990482;28;93953;-68
2022/01/22 10:44:03;;;;;;;7.38;2.90;;;;;;;;;;4992999;28;121509;-66
2022/01/22 10:49:14;;;;;;;7.20;2.13;;;;;;;;;;4988988;28;93019;-66
2022/01/22 10:51:54;;;;;;;7.53;3.08;;;;;;;;;;4999034;28;93777;-68
2022/01/22 10:54:21;;;;;;;6.95;2.38;;;;;;;;;;4989468;28;93355;-70
2022/01/22 10:56:48;;;;;;;6.28;2.67;;;;;;;;;;4994650;28;94089;-68
2022/01/22 10:59:17;;;;;;;2.45;1.98;;;;;;;;;;5002083;28;94931;-68
2022/01/22 11:01:43;;;;;;;3.53;2.10;;;;;;;;;;4997975;28;91823;-69
2022/01/22 11:04:11;;;;;;;6.20;2.28;;;;;;;;;;4994057;28;93499;-69
2022/01/22 11:07:00;;;;;;;4.03;2.05;;;;;;;;;;4995471;28;94033;-68
2022/01/22 11:09:47;;;;;;;8.43;2.17;;;;;;;;;;4989220;28;94944;-67
2022/01/22 11:12:14;;;;;;;10.35;2.40;;;;;;;;;;4991165;28;96558;-67
2022/01/22 11:14:41;;;;;;;9.40;3.00;;;;;;;;;;4991668;28;94120;-67
2022/01/22 11:17:07;;;;;;;4.05;2.38;;;;;;;;;;4989005;28;92563;-67
2022/01/22 11:19:35;;;;;;;3.22;1.88;;;;;;;;;;4989217;28;92488;-67
2022/01/22 11:22:04;;;;;;;11.13;2.90;;;;;;;;;;4992913;28;94489;-68
2022/01/22 11:24:33;;;;;;;5.82;1.90;;;;;;;;;;4991960;28;93921;-68
2022/01/22 11:27:00;;;;;;;5.75;1.98;;;;;;;;;;4993367;28;94011;-67
2022/01/22 11:29:51;;;;;;;7.55;2.20;;;;;;;;;;4999351;28;92508;-67
2022/01/22 11:32:19;;;;;;;6.07;2.08;;;;;;;;;;4981448;28;93331;-68
2022/01/22 11:34:47;;;;;;;5.28;2.47;;;;;;;;;;4991118;28;95962;-68
2022/01/22 11:37:32;;;;;;;7.20;2.72;;;;;;;;;;4992021;28;92516;-68
2022/01/22 11:40:22;;;;;;;4.90;1.98;;;;;;;;;;4995198;28;93233;-67
2022/01/22 11:43:07;;;;;;;2.75;2.15;;;;;;;;;;4992296;28;95073;-68
2022/01/22 11:45:41;;;;;;;6.20;2.40;;;;;;;;;;4993790;28;93118;-68
2022/01/22 11:48:26;;;;;;;7.65;1.90;;;;;;;;;;4995770;28;93424;-69
2022/01/22 11:50:54;;;;;;;7.03;2.42;;;;;;;;;;4995941;28;94142;-68
2022/01/22 11:53:26;;;;;;;3.60;2.50;;;;;;;;;;4990385;28;93133;-68
2022/01/22 11:56:11;;;;;;;6.60;2.15;;;;;;;;;;4994230;28;93408;-68
2022/01/22 11:58:55;;;;;;;3.85;2.45;;;;;;;;;;4992533;28;94413;-68
2022/01/22 12:01:39;;;;;;;6.20;3.00;;;;;;;;;;4994226;28;94936;-68
2022/01/22 12:04:07;;;;;;;6.35;3.97;;;;;;;;;;4994741;28;92879;-68
2022/01/22 12:06:59;;;;;;;10.13;3.70;;;;;;;;;;4999859;28;92492;-68
2022/01/22 12:09:29;;;;;;;6.57;3.90;;;;;;;;;;4995459;28;93495;-68
2022/01/22 12:14:48;;;;;;;9.13;4.88;;;;;;;;;;4996968;28;93155;-68
2022/01/22 12:17:23;;;;;;;7.55;4.40;;;;;;;;;;4995269;28;93767;-68
2022/01/22 12:22:29;;;;;;;13.43;4.13;;;;;;;;;;4989248;28;93277;-68
2022/01/22 12:24:55;;;;;;;11.70;4.30;;;;;;;;;;4988130;28;93921;-68
2022/01/22 12:27:42;;;;;;;7.05;4.15;;;;;;;;;;4989604;28;95219;-69
2022/01/22 12:30:09;;;;;;;7.90;4.10;;;;;;;;;;5000387;28;96425;-68
2022/01/22 12:32:45;;;;;;;7.00;4.53;;;;;;;;;;4992893;28;93331;-69
2022/01/22 12:35:14;;;;;;;7.07;3.97;;;;;;;;;;4991254;28;94824;-69
2022/01/22 12:37:44;;;;;;;21.02;5.63;;;;;;;;;;4992808;28;94240;-69
2022/01/22 12:40:11;;;;;;;9.05;4.00;;;;;;;;;;4992253;28;92542;-69
2022/01/22 12:42:53;;;;;;;9.88;4.20;;;;;;;;;;4992632;28;92802;-69
2022/01/22 12:45:21;;;;;;;16.00;4.22;;;;;;;;;;4993013;28;93569;-70
2022/01/22 12:47:49;;;;;;;6.45;3.28;;;;;;;;;;4991686;28;92522;-69
2022/01/22 12:50:15;;;;;;;9.43;3.42;;;;;;;;;;4998306;28;94217;-69
2022/01/22 12:52:46;;;;;;;7.72;3.30;;;;;;;;;;4991171;28;95892;-69
2022/01/22 12:55:16;;;;;;;7.60;3.72;;;;;;;;;;4986877;28;95674;-69
2022/01/22 12:57:57;;;;;;;5.60;2.90;;;;;;;;;;4990307;28;93866;-69
2022/01/22 13:00:23;;;;;;;6.72;2.92;;;;;;;;;;4989726;28;93754;-69
2022/01/22 13:02:59;;;;;;;6.63;2.72;;;;;;;;;;4985732;28;95642;-69
2022/01/22 13:05:26;;;;;;;9.85;3.58;;;;;;;;;;4984809;28;94996;-68
2022/01/22 13:08:11;;;;;;;13.73;3.50;;;;;;;;;;4988713;28;92681;-68
2022/01/22 13:10:44;;;;;;;7.13;3.15;;;;;;;;;;4984014;28;92830;-68
2022/01/22 13:13:16;;;;;;;9.68;3.13;;;;;;;;;;4992807;28;93596;-68
2022/01/22 13:15:42;;;;;;;8.77;4.15;;;;;;;;;;4995711;28;94335;-68
2022/01/22 13:18:09;;;;;;;11.95;4.22;;;;;;;;;;4994709;28;96552;-68
2022/01/22 13:20:36;;;;;;;14.00;4.65;;;;;;;;;;4993556;28;92550;-69
2022/01/22 13:23:15;;;;;;;11.10;4.28;;;;;;;;;;4990643;28;94841;-68
2022/01/22 13:25:42;;;;;;;9.52;4.80;;;;;;;;;;4990586;28;94223;-69
2022/01/22 13:28:11;;;;;;;10.55;4.30;;;;;;;;;;4990942;28;92670;-68
2022/01/22 13:30:55;;;;;;;10.35;4.70;;;;;;;;;;4987379;28;93848;-69
2022/01/22 13:33:40;;;;;;;10.00;4.15;;;;;;;;;;4991714;28;92621;-69
2022/01/22 13:36:16;;;;;;;12.00;3.97;;;;;;;;;;4992461;28;92986;-69
2022/01/22 13:39:04;;;;;;;7.13;4.50;;;;;;;;;;5002877;28;93210;-69
2022/01/22 13:49:50;;;;;;;12.15;5.30;;;;;;;;;;4999678;28;93158;-68
2022/01/22 13:52:18;;;;;;;8.43;5.18;;;;;;;;;;4994034;28;93188;-68
2022/01/22 13:54:48;;;;;;;11.50;5.35;;;;;;;;;;5000122;28;94938;-68
2022/01/22 13:57:19;;;;;;;10.25;5.07;;;;;;;;;;5001026;28;93942;-69
2022/01/22 13:59:46;;;;;;;15.48;5.28;;;;;;;;;;4998794;28;93590;-68
2022/01/22 14:02:29;;;;;;;8.55;3.83;;;;;;;;;;4995067;28;92206;-69
2022/01/22 14:04:59;;;;;;;22.63;6.00;;;;;;;;;;5000473;28;93625;-67
2022/01/22 14:07:30;;;;;;;12.98;6.32;;;;;;;;;;4995498;28;95301;-68
2022/01/22 14:09:59;;;;;;;18.00;5.80;;;;;;;;;;4993335;28;97031;-68
2022/01/22 14:12:32;;;;;;;13.25;4.75;;;;;;;;;;4987636;28;95583;-68
2022/01/22 14:15:01;;;;;;;7.93;5.30;;;;;;;;;;4996279;28;93153;-68
2022/01/22 14:17:36;;;;;;;13.48;6.22;;;;;;;;;;4998980;28;92564;-68
2022/01/22 14:20:05;;;;;;;11.07;6.10;;;;;;;;;;4992676;28;94279;-68
2022/01/22 14:22:57;;;;;;;15.95;6.13;;;;;;;;;;5006902;28;93260;-68
2022/01/22 14:25:24;;;;;;;10.40;6.05;;;;;;;;;;4957042;28;94195;-68
2022/01/22 14:27:57;;;;;;;10.73;6.47;;;;;;;;;;4989021;28;92759;-68
2022/01/22 14:30:34;;;;;;;16.63;7.60;;;;;;;;;;4997748;28;92764;-69
2022/01/22 14:33:00;;;;;;;23.65;7.13;;;;;;;;;;4992387;28;92980;-68
2022/01/22 14:35:27;;;;;;;16.05;7.15;;;;;;;;;;4991486;28;95645;-69
2022/01/22 14:37:56;;;;;;;22.75;8.05;;;;;;;;;;4994231;28;92508;-68
2022/01/22 14:45:55;;;;;;;26.90;8.45;;;;;;;;;;5003423;28;92488;-68
2022/01/22 14:48:22;;;;;;;20.05;6.70;;;;;;;;;;5000507;28;93835;-68
2022/01/22 14:50:49;;;;;;;11.57;5.97;;;;;;;;;;5006846;28;92470;-68
2022/01/22 14:53:15;;;;;;;16.08;6.45;;;;;;;;;;4999589;28;94062;-68
2022/01/22 14:55:51;;;;;;;23.45;6.43;;;;;;;;;;4993994;28;93384;-68
2022/01/22 14:58:18;;;;;;;17.65;6.47;;;;;;;;;;4988155;28;92858;-68
2022/01/22 15:00:49;;;;;;;9.98;5.60;;;;;;;;;;5001225;28;95262;-68
2022/01/22 15:03:15;;;;;;;16.08;6.60;;;;;;;;;;4992583;28;94643;-68
2022/01/22 15:05:43;;;;;;;18.58;6.30;;;;;;;;;;4986028;28;92536;-68
2022/01/22 15:08:09;;;;;;;9.65;6.07;;;;;;;;;;5004329;28;93993;-68
2022/01/22 15:10:35;;;;;;;15.25;6.60;;;;;;;;;;4994312;28;92628;-68
2022/01/22 15:13:02;;;;;;;13.70;6.50;;;;;;;;;;4993615;28;93420;-68
2022/01/22 15:15:35;;;;;;;12.93;5.85;;;;;;;;;;4999734;28;93385;-68
2022/01/22 15:18:09;;;;;;;13.45;6.57;;;;;;;;;;4994177;28;92519;-68
2022/01/22 15:20:36;;;;;;;12.88;5.70;;;;;;;;;;4987073;28;92828;-68
2022/01/22 15:23:02;;;;;;;18.13;7.85;;;;;;;;;;5000172;28;93485;-69
2022/01/22 15:25:29;;;;;;;15.75;6.80;;;;;;;;;;4999851;28;95518;-68
2022/01/22 15:27:55;;;;;;;12.52;6.50;;;;;;;;;;4993357;28;96996;-68
2022/01/22 15:30:29;;;;;;;17.67;6.53;;;;;;;;;;4999467;28;94564;-68
2022/01/22 15:33:21;;;;;;;13.15;6.07;;;;;;;;;;4993717;28;93731;-68
2022/01/22 15:35:43;;;;;;;18.02;6.95;;;;;;;;;;5000713;28;94534;-68
2022/01/22 15:38:09;;;;;;;17.83;6.05;;;;;;;;;;4993134;28;92440;-68
2022/01/22 15:40:36;;;;;;;11.18;6.50;;;;;;;;;;4994767;28;93976;-69
2022/01/22 15:43:03;;;;;;;12.60;5.45;;;;;;;;;;4993917;28;94018;-68
2022/01/22 15:45:33;;;;;;;11.38;5.80;;;;;;;;;;4999591;28;92757;-68
2022/01/22 15:47:59;;;;;;;16.35;6.10;;;;;;;;;;4985976;28;94161;-68
2022/01/22 15:50:26;;;;;;;12.82;5.90;;;;;;;;;;4997276;28;96621;-68
2022/01/22 15:53:10;;;;;;;16.15;6.75;;;;;;;;;;4996397;28;92604;-68
2022/01/22 15:55:37;;;;;;;16.45;7.82;;;;;;;;;;5000806;28;92434;-68
2022/01/22 15:58:03;;;;;;;13.63;7.05;;;;;;;;;;5001236;28;92761;-68
2022/01/22 16:00:34;;;;;;;13.82;7.45;;;;;;;;;;5004378;28;94305;-68
2022/01/22 16:03:03;;;;;;;12.30;6.93;;;;;;;;;;4994078;28;93965;-69
2022/01/22 16:05:32;;;;;;;18.80;7.65;;;;;;;;;;4992339;28;92634;-69
2022/01/22 16:07:59;;;;;;;15.60;7.65;;;;;;;;;;5002473;28;93041;-68
2022/01/22 16:10:45;;;;;;;19.33;8.35;;;;;;;;;;4993622;28;94607;-68
2022/01/22 16:13:14;;;;;;;20.75;7.78;;;;;;;;;;4996080;28;92986;-68
2022/01/22 16:15:41;;;;;;;17.83;7.75;;;;;;;;;;4999583;28;95731;-69
2022/01/22 16:18:07;;;;;;;18.80;7.35;;;;;;;;;;5002525;28;92556;-68
2022/01/22 16:20:33;;;;;;;17.60;6.88;;;;;;;;;;4992790;28;94012;-70
2022/01/22 16:23:00;;;;;;;17.40;6.00;;;;;;;;;;4990914;28;94976;-68
2022/01/22 16:25:26;;;;;;;17.42;8.13;;;;;;;;;;4999456;28;93487;-68
2022/01/22 16:27:53;;;;;;;16.02;8.90;;;;;;;;;;4991114;28;94124;-68
2022/01/22 16:30:19;;;;;;;20.63;8.98;;;;;;;;;;4985242;28;93607;-69
2022/01/22 16:32:45;;;;;;;19.80;8.50;;;;;;;;;;5002137;28;92445;-69
2022/01/22 16:35:13;;;;;;;17.15;9.00;;;;;;;;;;4992240;28;93376;-70
2022/01/22 16:37:41;;;;;;;18.58;9.05;;;;;;;;;;4982558;28;92835;-68
2022/01/22 16:40:13;;;;;;;16.88;9.07;;;;;;;;;;4990445;28;95011;-68
2022/01/22 16:42:47;;;;;;;22.63;9.07;;;;;;;;;;4991772;28;94531;-69
2022/01/22 16:45:52;;;;;;;29.42;11.55;;;;;;;;;;4993800;28;92429;-68
2022/01/22 16:56:55;;;;;;;19.75;10.23;;;;;;;;;;4920823;28;93885;-69
2022/01/22 16:59:43;;;;;;;17.17;9.43;;;;;;;;;;4975111;28;93516;-68
2022/01/22 17:02:13;;;;;;;11.15;8.73;;;;;;;;;;4989820;28;93520;-68